Weather at Almaty International Airport

Public forecast

Using degrees Celsius for public forecast. Weather courtesy of forecast.io.

Current aviation weather report (METAR) for Almaty International Airport

Report is more than 6 hours old.

2022/11/14 15:30 (retrieved 2 years ago)

UAAA 141530Z 20005MPS 9999 BKN100 07/M03 Q1015 NOSIG

Aviation forecast (TAF) for Almaty International Airport

Forecast is more than 12 hours old.

2023/02/22 18:22 (retrieved 1 year ago)

TAF UAAA 221700Z 2218/2318 19003G08MPS 1500 BR FU BKN030CB OVC100 TX10/2309Z TNM00/2302Z TEMPO 2218/2304 24006G18MPS 3100 -SHRASN BR BKN011 OVC020CB FM230400 02003G08MPS 5000 FU SCT020CB BKN100 TEMPO 2304/2314 07004G12MPS 3100 BKN011CB BKN100 FM231400 21003MPS 1200 BR FU BKN020CB OVC100 TEMPO 2314/2318 16003MPS 0500 FZFG FU FEW003 OVC011